Vieux-Fort の空港の天気 - METARとTAF

ヘウノラ国際空港 ( TLPL / UVF ) - セントルシア Vieux-Fort
飛行場実況気象(Metar)
観測時間01/22 04:00 AST (01/22 08:00 UTC)
風向・風速東北東 6m/s
視程10km以上
天気現象
少しの雲 雲底高度 730m
気温25℃
湿度89%
気圧1012hPa
METARTLPL 220800Z 07012KT 9999 FEW024 25/23 Q1012 NOSIG
過去の天気等 Google飛行場航空写真 Wunderground天気予報

過去48時間のMETAR

飛行場予報(TAF)
発表時間: 1/22 01:00 AST (1/22 05:00 UTC)
予報対象時間: 22日2時 AST ~ 23日2時 AST
風向・風速東 8m/s
視程10km以上
全天の4割程度の雲 雲底高度 700m
22日2時 AST ~ 22日11時 AST に一時的に
天気現象しゅう雨
全天の8割程度の雲 雲底高度 460m
全天の8割程度の雲 雲底高度 1220m
TAF TLPL 220500Z 2206/2306 09015KT 9999 SCT023
TEMPO 2206/2215 SHRA BKN015 BKN040